GFA510 OBBI-OMDB
Flight info
| Callsign | GFA510 |
|---|---|
| Flight time | N/A |
| Altitude | 25000 |
| Route | DCT BHR N697 SODAK P559 VUTEB VUTEB4C |
| Aircraft | A320/M-SDE3FGHIRWY/LB1 |
Departure
| Time | 2026-04-30 22:29 |
|---|---|
| Airport | Bahrain International Airport (OBBI) |
Arrival
| Time | N/A |
|---|---|
| Airport | Dubai International Airport (OMDB) |
| Time | Latitude | Longitude | Altitude | Speed | Heading |
|---|---|---|---|---|---|
| 2026-04-30 21:37 | 26.26839 | 50.62998 | 19 ft | 0 kts | 213° |
| 2026-04-30 21:43 | 26.26840 | 50.62998 | 19 ft | 0 kts | 213° |
| 2026-04-30 21:45 | 26.26840 | 50.62999 | 19 ft | 0 kts | 213° |
| 2026-04-30 22:07 | 26.26841 | 50.62999 | 19 ft | 0 kts | 213° |
| 2026-04-30 22:17 | 26.26865 | 50.63016 | 19 ft | 4 kts | 213° |
| 2026-04-30 22:17 | 26.26887 | 50.63033 | 18 ft | 4 kts | 213° |
| 2026-04-30 22:17 | 26.26931 | 50.63048 | 20 ft | 4 kts | 150° |
| 2026-04-30 22:18 | 26.26951 | 50.63029 | 18 ft | 4 kts | 127° |
| 2026-04-30 22:18 | 26.26977 | 50.62985 | 21 ft | 0 kts | 122° |
| 2026-04-30 22:19 | 26.26977 | 50.62984 | 21 ft | 0 kts | 122° |
| 2026-04-30 22:21 | 26.26977 | 50.62985 | 21 ft | 2 kts | 122° |
| 2026-04-30 22:21 | 26.26959 | 50.63016 | 18 ft | 10 kts | 122° |
| 2026-04-30 22:21 | 26.26917 | 50.63087 | 18 ft | 11 kts | 123° |
| 2026-04-30 22:22 | 26.26877 | 50.63153 | 19 ft | 11 kts | 124° |
| 2026-04-30 22:22 | 26.26834 | 50.63233 | 18 ft | 12 kts | 120° |
| 2026-04-30 22:22 | 26.26787 | 50.63317 | 18 ft | 13 kts | 123° |
| 2026-04-30 22:22 | 26.26735 | 50.63405 | 17 ft | 16 kts | 123° |
| 2026-04-30 22:23 | 26.26675 | 50.63507 | 19 ft | 15 kts | 123° |
| 2026-04-30 22:23 | 26.26610 | 50.63618 | 18 ft | 22 kts | 122° |
| 2026-04-30 22:23 | 26.26525 | 50.63762 | 18 ft | 22 kts | 123° |
| 2026-04-30 22:23 | 26.26450 | 50.63899 | 18 ft | 18 kts | 118° |
| 2026-04-30 22:24 | 26.26443 | 50.64025 | 16 ft | 17 kts | 71° |
| 2026-04-30 22:24 | 26.26439 | 50.64138 | 16 ft | 15 kts | 127° |
| 2026-04-30 22:24 | 26.26395 | 50.64228 | 18 ft | 13 kts | 92° |
| 2026-04-30 22:24 | 26.26431 | 50.64286 | 21 ft | 6 kts | 41° |
| 2026-04-30 22:25 | 26.26465 | 50.64337 | 23 ft | 13 kts | 71° |
| 2026-04-30 22:25 | 26.26436 | 50.64469 | 23 ft | 21 kts | 124° |
| 2026-04-30 22:25 | 26.26362 | 50.64595 | 25 ft | 18 kts | 124° |
| 2026-04-30 22:25 | 26.26294 | 50.64704 | 24 ft | 16 kts | 134° |
| 2026-04-30 22:26 | 26.26281 | 50.64757 | 27 ft | 0 kts | 313° |
| 2026-04-30 22:26 | 26.26281 | 50.64756 | 27 ft | 0 kts | 308° |
| 2026-04-30 22:27 | 26.26281 | 50.64752 | 26 ft | 1 kts | 286° |
| 2026-04-30 22:27 | 26.26285 | 50.64745 | 28 ft | 0 kts | 303° |
| 2026-04-30 22:28 | 26.26289 | 50.64739 | 27 ft | 6 kts | 303° |
| 2026-04-30 22:28 | 26.26454 | 50.64465 | 25 ft | 79 kts | 303° |
| 2026-04-30 22:29 | 26.28095 | 50.61608 | 704 ft | 183 kts | 305° |
| 2026-04-30 22:29 | 26.28838 | 50.60399 | 1264 ft | 194 kts | 308° |
| 2026-04-30 22:30 | 26.33479 | 50.58000 | 3370 ft | 229 kts | 23° |
| 2026-04-30 22:31 | 26.34452 | 50.62993 | 5256 ft | 264 kts | 129° |
| 2026-04-30 22:32 | 26.29979 | 50.66789 | 7059 ft | 289 kts | 148° |
| 2026-04-30 22:32 | 26.28312 | 50.70853 | 8491 ft | 312 kts | 84° |
| 2026-04-30 22:33 | 26.32798 | 50.75131 | 10521 ft | 306 kts | 349° |
| 2026-04-30 22:33 | 26.37096 | 50.74076 | 11168 ft | 347 kts | 359° |
| 2026-04-30 22:34 | 26.43635 | 50.78569 | 12602 ft | 393 kts | 43° |
| 2026-04-30 22:35 | 26.47556 | 50.82930 | 13901 ft | 400 kts | 40° |
| 2026-04-30 22:36 | 26.56392 | 50.90873 | 16087 ft | 417 kts | 33° |
| 2026-04-30 22:36 | 26.58728 | 50.92820 | 16620 ft | 422 kts | 33° |
| 2026-04-30 22:37 | 26.65847 | 50.98894 | 18250 ft | 436 kts | 35° |
| 2026-04-30 22:37 | 26.68222 | 51.00961 | 18722 ft | 440 kts | 35° |
| 2026-04-30 22:37 | 26.72650 | 51.05770 | 19707 ft | 452 kts | 55° |
| 2026-04-30 22:38 | 26.74905 | 51.12296 | 20680 ft | 457 kts | 84° |
| 2026-04-30 22:38 | 26.74358 | 51.19304 | 21632 ft | 452 kts | 113° |
| 2026-04-30 22:39 | 26.73301 | 51.22633 | 22104 ft | 454 kts | 115° |
| 2026-04-30 22:39 | 26.70057 | 51.32699 | 23459 ft | 463 kts | 114° |
| 2026-04-30 22:40 | 26.66748 | 51.42958 | 24442 ft | 473 kts | 114° |
| 2026-04-30 22:41 | 26.63387 | 51.53415 | 24867 ft | 483 kts | 114° |
| 2026-04-30 22:41 | 26.61117 | 51.60497 | 24864 ft | 484 kts | 114° |
| 2026-04-30 22:42 | 26.56556 | 51.74628 | 24862 ft | 485 kts | 114° |
| 2026-04-30 22:43 | 26.54255 | 51.81734 | 24859 ft | 485 kts | 115° |
| 2026-04-30 22:43 | 26.51969 | 51.88785 | 24856 ft | 486 kts | 115° |
| 2026-04-30 22:44 | 26.49630 | 51.95880 | 24860 ft | 485 kts | 115° |
| 2026-04-30 22:45 | 26.44914 | 52.09932 | 24858 ft | 484 kts | 115° |
| 2026-04-30 22:45 | 26.42559 | 52.17002 | 24855 ft | 484 kts | 115° |
| 2026-04-30 22:46 | 26.40220 | 52.24008 | 24853 ft | 484 kts | 115° |
| 2026-04-30 22:47 | 26.35485 | 52.38072 | 24844 ft | 483 kts | 116° |
| 2026-04-30 22:47 | 26.32987 | 52.44975 | 24843 ft | 481 kts | 118° |
| 2026-04-30 22:48 | 26.30314 | 52.51780 | 24837 ft | 480 kts | 119° |
| 2026-04-30 22:49 | 26.26294 | 52.62011 | 24835 ft | 480 kts | 118° |
| 2026-04-30 22:49 | 26.22369 | 52.72245 | 24834 ft | 480 kts | 118° |
| 2026-04-30 22:50 | 26.17158 | 52.85927 | 24818 ft | 478 kts | 118° |
| 2026-04-30 22:51 | 26.14550 | 52.92707 | 24810 ft | 478 kts | 118° |
| 2026-04-30 22:51 | 26.11929 | 52.99516 | 24810 ft | 478 kts | 118° |
| 2026-04-30 22:52 | 26.10616 | 53.02925 | 24807 ft | 478 kts | 118° |
| 2026-04-30 22:52 | 26.08052 | 53.09719 | 24817 ft | 480 kts | 117° |
| 2026-04-30 22:53 | 26.05538 | 53.16618 | 24802 ft | 480 kts | 117° |
| 2026-04-30 22:53 | 26.03045 | 53.23480 | 24811 ft | 480 kts | 117° |
| 2026-04-30 22:53 | 26.01780 | 53.26929 | 24805 ft | 480 kts | 117° |
| 2026-04-30 22:54 | 25.99297 | 53.33642 | 24803 ft | 480 kts | 117° |
| 2026-04-30 22:55 | 25.95901 | 53.42809 | 24810 ft | 481 kts | 117° |
| 2026-04-30 22:55 | 25.93636 | 53.48903 | 24798 ft | 481 kts | 117° |
| 2026-04-30 22:56 | 25.91159 | 53.55829 | 24799 ft | 482 kts | 116° |
| 2026-04-30 22:56 | 25.88011 | 53.65140 | 24811 ft | 483 kts | 115° |
| 2026-04-30 22:57 | 25.85623 | 53.72136 | 24801 ft | 483 kts | 116° |
| 2026-04-30 22:57 | 25.83208 | 53.79091 | 24812 ft | 482 kts | 115° |
| 2026-04-30 22:58 | 25.80793 | 53.86011 | 24823 ft | 482 kts | 115° |
| 2026-04-30 22:59 | 25.77177 | 53.96394 | 24822 ft | 481 kts | 115° |
| 2026-04-30 22:59 | 25.73661 | 54.06823 | 23189 ft | 485 kts | 111° |